Lula, Georgia
Current Conditions -  °F | °C
As of 5:53 PM on Saturday 25 Oct 2014 (Local Time) from KGVL Reporting Station
Clear Clear  
Wind Chill: 72°   Ceiling: Unl
Heat Index: 72°   Visibility: 10mi
Dew Point: 49°   Wind: 10mph
Humidity: 44%   Direction: 250°WSW
Pressure: 30.01"   Gusts: NA
Location:  34.39°N, 83.67°W
Report Text: KGVL 252153Z AUTO 25009KT 10SM CLR 22/09 A3001 RMK AO2 SLP155 T02220094
Loading
Personal Weather Stations






























Interactive Weather Map
Tropical Storm Tracking
New forecast layout! Learn more

10-Day Weather Forecast

Advertisements
Track Severe Weather on mobile